createdAt,value
2023-04-12T00:00:24.067Z,37.53
2023-04-12T00:03:12.825Z,32.60
2023-04-12T00:05:46.916Z,44.43
2023-04-12T00:08:16.697Z,52.17
2023-04-12T00:10:45.033Z,48.27
2023-04-12T00:13:13.490Z,55.57
2023-04-12T00:15:41.855Z,55.33
2023-04-12T00:18:10.581Z,58.60
2023-04-12T00:20:39.257Z,42.37
2023-04-12T00:23:09.884Z,59.07
2023-04-12T00:25:39.304Z,65.10
2023-04-12T00:28:07.963Z,61.87
2023-04-12T00:30:36.202Z,70.67
2023-04-12T00:33:04.931Z,59.73
2023-04-12T00:35:33.422Z,68.83
2023-04-12T00:38:02.955Z,74.57
2023-04-12T00:40:32.501Z,89.87
2023-04-12T00:43:01.613Z,90.97
2023-04-12T00:45:29.937Z,92.77
2023-04-12T00:47:58.751Z,107.43
2023-04-12T00:50:27.001Z,73.73
2023-04-12T00:52:56.412Z,77.47
2023-04-12T00:55:24.686Z,64.73
2023-04-12T00:57:55.021Z,73.63
2023-04-12T01:00:23.599Z,72.47
2023-04-12T01:02:53.782Z,76.33
2023-04-12T01:05:24.804Z,68.47
2023-04-12T01:08:10.675Z,75.00
2023-04-12T01:10:45.356Z,91.93
2023-04-12T01:13:25.681Z,72.57
2023-04-12T01:16:01.255Z,66.53
2023-04-12T01:18:31.623Z,57.70
2023-04-12T01:21:05.866Z,86.50
2023-04-12T01:23:55.196Z,55.37
2023-04-12T01:26:39.044Z,66.90
2023-04-12T01:29:12.558Z,81.43
2023-04-12T01:31:43.393Z,102.50
2023-04-12T01:34:13.394Z,107.53
2023-04-12T01:36:43.775Z,109.77
2023-04-12T01:39:12.774Z,97.60
2023-04-12T01:41:45.233Z,85.37
2023-04-12T01:44:19.512Z,104.10
2023-04-12T01:46:49.532Z,95.97
2023-04-12T01:49:20.146Z,72.83
2023-04-12T01:51:56.733Z,85.50
2023-04-12T01:54:28.999Z,82.53
2023-04-12T01:56:59.556Z,82.80
2023-04-12T01:59:33.572Z,82.40
2023-04-12T02:02:03.276Z,91.63
2023-04-12T02:04:34.791Z,107.37
2023-04-12T02:07:03.607Z,74.80
2023-04-12T02:09:36.875Z,96.83
2023-04-12T02:12:07.680Z,96.27
2023-04-12T02:14:39.256Z,82.77
2023-04-12T02:17:08.033Z,95.47
2023-04-12T02:19:37.148Z,66.27
2023-04-12T02:22:07.982Z,47.27
2023-04-12T02:24:36.718Z,70.37
2023-04-12T02:27:06.062Z,88.03
2023-04-12T02:29:36.054Z,71.07
2023-04-12T02:32:06.343Z,68.13
2023-04-12T02:34:36.784Z,65.20
2023-04-12T02:37:21.903Z,64.40
2023-04-12T02:39:51.002Z,76.27
2023-04-12T02:42:19.167Z,72.57
2023-04-12T02:44:50.678Z,57.47
2023-04-12T02:47:20.231Z,65.23
2023-04-12T02:49:50.976Z,91.77
2023-04-12T02:52:21.055Z,86.93
2023-04-12T02:55:03.378Z,87.43
2023-04-12T02:57:31.894Z,101.53
2023-04-12T03:00:01.642Z,83.60
2023-04-12T03:02:39.824Z,96.07
2023-04-12T03:05:12.372Z,98.43
2023-04-12T03:07:43.663Z,109.10
2023-04-12T03:10:12.787Z,107.80
2023-04-12T03:12:48.839Z,99.50
2023-04-12T03:15:23.444Z,100.40
2023-04-12T03:17:55.088Z,108.67
2023-04-12T03:20:29.512Z,94.20
2023-04-12T03:23:04.844Z,98.90
2023-04-12T03:25:36.995Z,93.97
2023-04-12T03:28:27.716Z,88.20
2023-04-12T03:30:56.616Z,91.50
2023-04-12T03:33:30.393Z,67.80
2023-04-12T03:36:04.278Z,65.63
2023-04-12T03:38:33.248Z,81.37
2023-04-12T03:41:02.174Z,89.77
2023-04-12T03:43:37.755Z,96.27
2023-04-12T03:46:18.501Z,59.80
2023-04-12T03:48:55.731Z,62.13
2023-04-12T03:51:26.907Z,95.17
2023-04-12T03:54:02.749Z,93.37
2023-04-12T03:56:38.510Z,91.80
2023-04-12T03:59:11.771Z,92.17
2023-04-12T04:01:43.401Z,90.50
2023-04-12T04:04:13.529Z,83.40
2023-04-12T04:06:42.822Z,88.73
2023-04-12T04:09:11.079Z,107.70
2023-04-12T04:11:40.792Z,102.20
2023-04-12T04:14:09.398Z,90.10
2023-04-12T04:16:38.511Z,106.27
2023-04-12T04:19:09.250Z,89.50
2023-04-12T04:21:40.580Z,84.77
2023-04-12T04:24:11.460Z,92.63
2023-04-12T04:26:43.437Z,88.23
2023-04-12T04:29:22.598Z,76.03
2023-04-12T04:31:51.436Z,92.80
2023-04-12T04:34:20.044Z,90.20
2023-04-12T04:36:51.705Z,82.40
2023-04-12T04:39:27.203Z,82.63
2023-04-12T04:41:58.050Z,80.87
2023-04-12T04:44:47.807Z,82.60
2023-04-12T04:47:17.735Z,74.20
2023-04-12T04:49:48.052Z,77.50
2023-04-12T04:52:26.048Z,86.77
2023-04-12T04:54:59.643Z,60.10
2023-04-12T04:57:34.227Z,78.40
2023-04-12T05:00:10.600Z,62.60
2023-04-12T05:02:42.972Z,80.50
2023-04-12T05:05:15.887Z,82.93
2023-04-12T05:07:47.667Z,84.87
2023-04-12T05:10:16.776Z,81.77
2023-04-12T05:12:46.161Z,80.37
2023-04-12T05:15:16.321Z,66.40
2023-04-12T05:17:45.376Z,82.40
2023-04-12T05:20:13.850Z,73.63
2023-04-12T05:22:43.169Z,74.87
2023-04-12T05:25:12.977Z,72.17
2023-04-12T05:27:51.760Z,70.97
2023-04-12T05:30:21.570Z,60.20
2023-04-12T05:32:51.091Z,58.83
2023-04-12T05:35:20.919Z,74.63
2023-04-12T05:37:50.821Z,75.93
2023-04-12T05:40:20.740Z,73.23
2023-04-12T05:42:52.489Z,68.07
2023-04-12T05:45:21.592Z,68.13
2023-04-12T05:47:50.340Z,71.57
2023-04-12T05:50:20.291Z,69.97
2023-04-12T05:52:49.599Z,65.00
2023-04-12T05:55:18.466Z,27.83
2023-04-12T05:57:48.718Z,57.70
2023-04-12T06:00:21.371Z,64.20
2023-04-12T06:02:50.748Z,66.73
2023-04-12T06:05:20.012Z,58.27
2023-04-12T06:07:49.054Z,60.77
2023-04-12T06:10:18.306Z,66.57
2023-04-12T06:12:52.332Z,23.80
2023-04-12T06:15:21.328Z,54.83
2023-04-12T06:17:55.337Z,31.63
2023-04-12T06:20:23.722Z,33.10
2023-04-12T06:22:52.781Z,46.23
2023-04-12T06:25:22.944Z,36.47
2023-04-12T06:27:53.328Z,40.83
2023-04-12T06:30:23.194Z,40.67
2023-04-12T06:32:54.387Z,44.00
2023-04-12T06:35:24.099Z,47.63
2023-04-12T06:37:52.828Z,35.77
2023-04-12T06:40:21.239Z,28.10
2023-04-12T06:42:49.819Z,32.97
2023-04-12T06:45:24.642Z,22.87
2023-04-12T06:47:55.913Z,29.20
2023-04-12T06:50:24.318Z,23.40
2023-04-12T06:52:53.069Z,24.33
2023-04-12T06:55:21.451Z,27.77
2023-04-12T06:57:52.069Z,26.30
2023-04-12T07:00:20.827Z,40.30
2023-04-12T07:02:50.789Z,45.50
2023-04-12T07:05:19.400Z,25.93
2023-04-12T07:07:48.069Z,21.97
2023-04-12T07:10:16.393Z,25.80
2023-04-12T07:12:44.850Z,24.17
2023-04-12T07:15:13.220Z,23.63
2023-04-12T07:17:41.835Z,23.60
2023-04-12T07:20:13.094Z,23.93
2023-04-12T07:22:41.754Z,27.13
2023-04-12T07:25:10.986Z,27.00
2023-04-12T07:27:39.819Z,27.77
2023-04-12T07:30:09.129Z,26.70
2023-04-12T07:32:37.658Z,26.50
2023-04-12T07:35:06.788Z,27.30
2023-04-12T07:37:37.157Z,24.77
2023-04-12T07:40:06.593Z,23.67
2023-04-12T07:42:35.510Z,27.33
2023-04-12T07:45:03.989Z,29.23
2023-04-12T07:47:32.910Z,24.50
2023-04-12T07:50:02.013Z,28.63
2023-04-12T07:52:30.764Z,26.53
2023-04-12T07:55:00.684Z,27.83
2023-04-12T07:57:29.395Z,23.37
2023-04-12T07:59:57.725Z,26.73
2023-04-12T08:02:26.854Z,27.80
2023-04-12T08:04:55.928Z,24.47
2023-04-12T08:07:24.464Z,29.57
2023-04-12T08:09:52.696Z,20.43
2023-04-12T08:12:22.668Z,23.13
2023-04-12T08:14:50.956Z,37.33
2023-04-12T08:17:19.549Z,33.30
2023-04-12T08:19:47.791Z,24.73
2023-04-12T08:22:16.466Z,28.77
2023-04-12T08:24:44.742Z,24.40
2023-04-12T08:27:13.970Z,26.73
2023-04-12T08:29:43.553Z,26.37
2023-04-12T08:32:12.791Z,24.47
2023-04-12T08:34:42.389Z,23.13
2023-04-12T08:37:12.605Z,20.83
2023-04-12T08:39:40.908Z,24.40
2023-04-12T08:42:09.845Z,19.23
2023-04-12T08:44:39.906Z,21.90
2023-04-12T08:47:12.229Z,26.10
2023-04-12T08:49:40.545Z,15.53
2023-04-12T08:52:11.046Z,17.93
2023-04-12T08:54:39.569Z,25.77
2023-04-12T08:57:09.701Z,19.07
2023-04-12T08:59:40.085Z,21.17
2023-04-12T09:02:10.597Z,22.53
2023-04-12T09:04:49.684Z,23.67
2023-04-12T09:07:18.517Z,19.23
2023-04-12T09:09:48.613Z,18.10
2023-04-12T09:12:20.130Z,19.30
2023-04-12T09:14:48.555Z,23.70
2023-04-12T09:17:26.715Z,17.67
2023-04-12T09:19:56.326Z,17.47
2023-04-12T09:22:35.117Z,16.93
2023-04-12T09:25:04.156Z,17.20
2023-04-12T09:27:47.844Z,19.47
2023-04-12T09:30:17.546Z,15.45
2023-04-12T09:32:49.513Z,28.53
2023-04-12T09:35:18.720Z,17.08
2023-04-12T09:37:47.668Z,22.27
2023-04-12T09:40:15.857Z,24.83
2023-04-12T09:42:53.357Z,16.00
2023-04-12T09:45:23.980Z,12.98
2023-04-12T09:47:55.452Z,23.40
2023-04-12T09:50:25.249Z,21.70
2023-04-12T09:52:54.955Z,21.93
2023-04-12T09:55:25.190Z,21.53
2023-04-12T09:57:55.044Z,13.90
2023-04-12T10:00:26.843Z,22.33
2023-04-12T10:02:57.931Z,20.93
2023-04-12T10:05:27.374Z,18.77
2023-04-12T10:07:58.440Z,20.88
2023-04-12T10:10:30.499Z,18.63
2023-04-12T10:13:00.313Z,24.20
2023-04-12T10:15:30.831Z,19.50
2023-04-12T10:18:05.987Z,22.77
2023-04-12T10:20:34.414Z,26.38
2023-04-12T10:23:07.869Z,30.50
2023-04-12T10:25:36.890Z,22.67
2023-04-12T10:28:15.895Z,21.30
2023-04-12T10:30:44.751Z,19.57
2023-04-12T10:33:17.547Z,20.37
2023-04-12T10:35:54.484Z,17.05
2023-04-12T10:38:25.076Z,18.03
2023-04-12T10:41:24.919Z,18.90
2023-04-12T10:43:53.959Z,18.63
2023-04-12T10:46:49.517Z,11.68
2023-04-12T10:49:20.330Z,17.57
2023-04-12T10:52:14.596Z,19.60
2023-04-12T10:54:43.482Z,19.53
2023-04-12T10:57:49.401Z,24.30
2023-04-12T11:00:21.466Z,22.77
2023-04-12T11:03:12.203Z,22.97
2023-04-12T11:06:20.148Z,21.27
2023-04-12T11:09:22.864Z,16.07
2023-04-12T11:11:51.979Z,18.50
2023-04-12T11:14:28.519Z,18.20
2023-04-12T11:17:25.946Z,23.77
2023-04-12T11:19:57.309Z,21.10
2023-04-12T11:22:29.227Z,17.17
2023-04-12T11:24:59.626Z,19.13
2023-04-12T11:27:29.742Z,15.47
2023-04-12T11:29:59.625Z,24.13
2023-04-12T11:32:29.947Z,22.27
2023-04-12T11:34:59.529Z,18.27
2023-04-12T11:37:33.844Z,25.13
2023-04-12T11:40:02.109Z,21.60
2023-04-12T11:42:31.087Z,22.20
2023-04-12T11:45:04.869Z,21.17
2023-04-12T11:47:44.117Z,23.23
2023-04-12T11:50:12.918Z,15.37
2023-04-12T11:52:42.873Z,23.53
2023-04-12T11:55:11.745Z,18.37
2023-04-12T11:57:40.689Z,17.00
2023-04-12T12:00:10.055Z,25.20
2023-04-12T12:02:52.193Z,31.20
2023-04-12T12:05:30.655Z,17.57
2023-04-12T12:08:05.773Z,17.57
2023-04-12T12:13:11.482Z,23.53
2023-04-12T12:15:39.976Z,18.60
2023-04-12T12:18:09.429Z,18.53
2023-04-12T12:20:42.476Z,31.37
2023-04-12T12:23:12.467Z,11.57
2023-04-12T12:25:47.122Z,22.90
2023-04-12T12:28:15.981Z,13.37
2023-04-12T12:30:44.328Z,14.05
2023-04-12T12:33:14.019Z,12.88
2023-04-12T12:35:42.293Z,20.13
2023-04-12T12:38:12.217Z,14.30
2023-04-12T12:40:40.655Z,19.30
2023-04-12T12:43:18.325Z,17.42
2023-04-12T12:45:46.888Z,14.10
2023-04-12T12:48:15.910Z,20.02
2023-04-12T12:50:44.307Z,19.35
2023-04-12T12:53:14.358Z,15.52
2023-04-12T12:55:42.582Z,21.10
2023-04-12T12:58:11.327Z,12.68
2023-04-12T13:00:41.287Z,20.40
2023-04-12T13:03:10.254Z,7.32
2023-04-12T13:05:38.735Z,21.38
2023-04-12T13:08:07.324Z,20.52
2023-04-12T13:10:37.045Z,15.95
2023-04-12T13:13:05.714Z,15.90
2023-04-12T13:15:34.071Z,11.10
2023-04-12T13:18:02.673Z,13.25
2023-04-12T13:20:31.210Z,18.80
2023-04-12T13:23:00.588Z,10.75
2023-04-12T13:25:29.046Z,14.45
2023-04-12T13:27:59.071Z,22.85
2023-04-12T13:30:27.584Z,14.63
2023-04-12T13:32:56.324Z,11.38
2023-04-12T13:35:24.702Z,19.67
2023-04-12T13:37:53.320Z,12.80
2023-04-12T13:40:21.864Z,17.00
2023-04-12T13:42:50.415Z,14.60
2023-04-12T13:45:20.313Z,20.75
2023-04-12T13:47:48.945Z,13.68
2023-04-12T13:50:17.200Z,14.02
2023-04-12T13:52:46.265Z,17.90
2023-04-12T13:55:14.605Z,14.75
2023-04-12T13:57:43.327Z,12.05
2023-04-12T14:00:12.884Z,18.98
2023-04-12T14:02:43.094Z,20.90
2023-04-12T14:05:11.937Z,20.85
2023-04-12T14:07:40.553Z,20.98
2023-04-12T14:10:10.179Z,18.73
2023-04-12T14:12:38.741Z,22.10
2023-04-12T14:15:08.401Z,21.55
2023-04-12T14:17:37.139Z,21.30
2023-04-12T14:20:10.521Z,15.93
2023-04-12T14:22:39.528Z,18.90
2023-04-12T14:25:09.327Z,22.88
2023-04-12T14:27:37.952Z,19.95
2023-04-12T14:30:07.807Z,21.60
2023-04-12T14:32:36.589Z,16.25
2023-04-12T14:35:06.691Z,21.17
2023-04-12T14:37:35.442Z,19.70
2023-04-12T14:40:06.234Z,19.60
2023-04-12T14:42:34.918Z,17.10
2023-04-12T14:45:05.270Z,24.33
2023-04-12T14:47:34.114Z,17.67
2023-04-12T14:50:02.524Z,17.73
2023-04-12T14:52:32.507Z,17.55
2023-04-12T14:55:01.372Z,17.77
2023-04-12T14:57:30.297Z,16.83
2023-04-12T14:59:58.851Z,11.82
2023-04-12T15:02:27.919Z,15.15
2023-04-12T15:04:57.301Z,14.30
2023-04-12T15:07:26.148Z,11.93
2023-04-12T15:09:57.941Z,19.00
2023-04-12T15:12:26.817Z,9.80
2023-04-12T15:14:57.576Z,14.88
2023-04-12T15:17:26.415Z,15.35
2023-04-12T15:19:54.790Z,11.18
2023-04-12T15:22:26.477Z,14.85
2023-04-12T15:24:57.749Z,18.30
2023-04-12T15:27:26.437Z,12.52
2023-04-12T15:29:54.719Z,10.35
2023-04-12T15:32:26.264Z,13.30
2023-04-12T15:34:56.548Z,14.32
2023-04-12T15:37:25.651Z,13.82
2023-04-12T15:39:55.380Z,19.33
2023-04-12T15:42:23.962Z,13.07
2023-04-12T15:44:52.264Z,13.60
2023-04-12T15:47:20.858Z,10.75
2023-04-12T15:49:49.236Z,12.70
2023-04-12T15:52:17.953Z,13.45
2023-04-12T15:54:46.267Z,11.23
2023-04-12T15:57:16.624Z,17.25
2023-04-12T15:59:44.803Z,13.40
2023-04-12T16:02:13.316Z,15.00
2023-04-12T16:04:44.351Z,14.75
2023-04-12T16:07:14.583Z,13.85
2023-04-12T16:09:42.800Z,12.23
2023-04-12T16:12:11.633Z,14.55
2023-04-12T16:14:42.908Z,11.52
2023-04-12T16:17:12.500Z,15.48
2023-04-12T16:19:41.845Z,12.50
2023-04-12T16:22:10.418Z,17.80
2023-04-12T16:24:39.216Z,7.63
2023-04-12T16:27:08.473Z,17.83
2023-04-12T16:29:37.097Z,14.15
2023-04-12T16:32:08.023Z,12.45
2023-04-12T16:34:36.590Z,15.38
2023-04-12T16:37:05.133Z,10.52
2023-04-12T16:39:33.950Z,11.25
2023-04-12T16:42:06.100Z,13.93
2023-04-12T16:44:34.559Z,13.32
2023-04-12T16:47:03.338Z,12.27
2023-04-12T16:49:33.187Z,11.50
2023-04-12T16:52:02.478Z,10.65
2023-04-12T16:54:30.737Z,12.18
2023-04-12T16:56:59.508Z,10.73
2023-04-12T16:59:27.763Z,19.13
2023-04-12T17:01:57.983Z,15.05
2023-04-12T17:04:26.686Z,12.93
2023-04-12T17:06:56.794Z,13.63
2023-04-12T17:09:25.054Z,12.75
2023-04-12T17:11:53.615Z,13.35
2023-04-12T17:14:21.993Z,10.70
2023-04-12T17:16:50.901Z,11.73
2023-04-12T17:19:20.323Z,11.82
2023-04-12T17:21:49.308Z,14.30
2023-04-12T17:24:18.967Z,14.63
2023-04-12T17:26:47.641Z,13.85
2023-04-12T17:29:16.081Z,13.18
2023-04-12T17:31:45.665Z,17.17
2023-04-12T17:34:13.962Z,20.05
2023-04-12T17:36:42.513Z,14.65
2023-04-12T17:39:11.439Z,13.82
2023-04-12T17:41:41.768Z,11.35
2023-04-12T17:44:10.167Z,20.40
2023-04-12T17:46:38.757Z,16.80
2023-04-12T17:49:08.979Z,18.17
2023-04-12T17:51:37.487Z,16.25
2023-04-12T17:54:05.837Z,14.95
2023-04-12T17:56:34.657Z,14.27
2023-04-12T17:59:05.565Z,16.98
2023-04-12T18:01:36.833Z,15.32
2023-04-12T18:04:07.099Z,15.98
2023-04-12T18:06:35.952Z,16.75
2023-04-12T18:09:04.906Z,19.15
2023-04-12T18:11:34.362Z,13.10
2023-04-12T18:14:04.482Z,14.65
2023-04-12T18:16:32.924Z,17.02
2023-04-12T18:19:03.696Z,19.23
2023-04-12T18:21:32.494Z,9.57
2023-04-12T18:24:02.313Z,15.53
2023-04-12T18:26:31.734Z,15.50
2023-04-12T18:29:00.402Z,13.00
2023-04-12T18:31:30.381Z,16.33
2023-04-12T18:33:59.720Z,13.90
2023-04-12T18:36:28.611Z,19.20
2023-04-12T18:38:57.075Z,13.23
2023-04-12T18:41:25.528Z,16.27
2023-04-12T18:43:54.207Z,15.97
2023-04-12T18:46:22.654Z,16.77
2023-04-12T18:48:54.446Z,15.77
2023-04-12T18:51:24.305Z,15.87
2023-04-12T18:53:52.919Z,17.40
2023-04-12T18:56:24.516Z,16.60
2023-04-12T18:58:56.245Z,17.77
2023-04-12T19:01:25.879Z,19.57
2023-04-12T19:03:56.184Z,13.33
2023-04-12T19:06:24.689Z,20.97
2023-04-12T19:08:53.375Z,22.13
2023-04-12T19:11:23.280Z,19.53
2023-04-12T19:13:52.071Z,24.27
2023-04-12T19:16:20.442Z,16.87
2023-04-12T19:18:49.311Z,18.93
2023-04-12T19:21:19.006Z,21.50
2023-04-12T19:23:47.802Z,26.63
2023-04-12T19:26:17.061Z,34.90
2023-04-12T19:28:46.198Z,31.73
2023-04-12T19:31:14.996Z,19.13
2023-04-12T19:33:43.571Z,21.87
2023-04-12T19:36:12.305Z,20.80
2023-04-12T19:38:44.126Z,24.87
2023-04-12T19:41:12.470Z,23.17
2023-04-12T19:43:41.150Z,21.90
2023-04-12T19:46:09.447Z,25.27
2023-04-12T19:48:38.340Z,31.70
2023-04-12T19:51:07.561Z,18.53
2023-04-12T19:53:36.198Z,20.00
2023-04-12T19:56:06.276Z,23.70
2023-04-12T19:58:35.679Z,26.47
2023-04-12T20:01:06.969Z,19.87
2023-04-12T20:03:35.650Z,24.63
2023-04-12T20:06:04.622Z,20.63
2023-04-12T20:08:33.235Z,17.67
2023-04-12T20:11:02.522Z,19.37
2023-04-12T20:13:34.158Z,22.13
2023-04-12T20:16:02.656Z,20.40
2023-04-12T20:18:31.346Z,18.10
2023-04-12T20:20:59.720Z,26.50
2023-04-12T20:23:29.345Z,23.80
2023-04-12T20:25:57.941Z,16.17
2023-04-12T20:28:26.574Z,19.90
2023-04-12T20:30:56.207Z,17.57
2023-04-12T20:33:24.946Z,17.00
2023-04-12T20:35:54.109Z,22.10
2023-04-12T20:38:23.177Z,18.57
2023-04-12T20:40:51.496Z,21.63
2023-04-12T20:43:20.338Z,19.23
2023-04-12T20:45:48.778Z,13.27
2023-04-12T20:48:19.596Z,14.80
2023-04-12T20:50:48.028Z,16.23
2023-04-12T20:53:17.584Z,17.83
2023-04-12T20:55:46.174Z,17.30
2023-04-12T20:58:16.431Z,21.13
2023-04-12T21:00:44.847Z,23.77
2023-04-12T21:03:13.688Z,18.00
2023-04-12T21:05:43.242Z,23.40
2023-04-12T21:08:12.681Z,21.53
2023-04-12T21:10:41.757Z,20.80
2023-04-12T21:13:11.865Z,20.20
2023-04-12T21:15:40.304Z,22.80
2023-04-12T21:18:09.239Z,16.60
2023-04-12T21:20:38.163Z,18.87
2023-04-12T21:23:08.149Z,23.83
2023-04-12T21:25:36.361Z,18.97
2023-04-12T21:28:06.738Z,20.30
2023-04-12T21:30:34.919Z,23.03
2023-04-12T21:33:04.376Z,19.47
2023-04-12T21:35:32.772Z,21.63
2023-04-12T21:38:01.632Z,23.07
2023-04-12T21:40:31.301Z,20.70
2023-04-12T21:42:59.907Z,23.37
2023-04-12T21:45:28.423Z,24.03
2023-04-12T21:47:57.133Z,26.60
2023-04-12T21:50:25.916Z,24.00
2023-04-12T21:52:55.456Z,24.37
2023-04-12T21:55:24.073Z,23.93
2023-04-12T21:57:53.896Z,30.80
2023-04-12T22:00:24.797Z,24.93
2023-04-12T22:02:54.110Z,34.70
2023-04-12T22:05:22.542Z,37.27
2023-04-12T22:07:51.184Z,27.00
2023-04-12T22:10:20.573Z,27.50
2023-04-12T22:12:50.412Z,45.07
2023-04-12T22:15:21.154Z,39.77
2023-04-12T22:17:49.942Z,40.07
2023-04-12T22:20:18.448Z,27.57
2023-04-12T22:22:47.303Z,29.60
2023-04-12T22:25:15.862Z,26.83
2023-04-12T22:27:46.271Z,29.80
2023-04-12T22:30:15.800Z,34.30
2023-04-12T22:32:46.084Z,28.13
2023-04-12T22:35:14.773Z,30.70
2023-04-12T22:37:43.447Z,30.50
2023-04-12T22:40:13.472Z,27.23
2023-04-12T22:42:47.249Z,29.70
2023-04-12T22:45:16.566Z,32.30
2023-04-12T22:47:47.597Z,32.47
2023-04-12T22:50:15.919Z,32.43
2023-04-12T22:52:44.469Z,29.50
2023-04-12T22:55:14.486Z,30.93
2023-04-12T22:57:43.613Z,33.57
2023-04-12T23:00:16.999Z,33.63
2023-04-12T23:02:48.510Z,30.57
2023-04-12T23:05:17.450Z,37.63
2023-04-12T23:07:46.190Z,28.17
2023-04-12T23:10:14.381Z,32.37
2023-04-12T23:12:43.418Z,34.73
2023-04-12T23:15:12.661Z,31.10
2023-04-12T23:17:41.123Z,31.50
2023-04-12T23:20:13.197Z,37.17
2023-04-12T23:22:57.516Z,36.73
2023-04-12T23:25:37.780Z,30.43
2023-04-12T23:28:12.490Z,32.43
2023-04-12T23:30:43.459Z,32.77
2023-04-12T23:33:18.111Z,30.17
2023-04-12T23:35:49.321Z,33.10
2023-04-12T23:38:23.234Z,32.60
2023-04-12T23:40:53.569Z,33.50
2023-04-12T23:43:22.374Z,33.00
2023-04-12T23:45:51.194Z,29.80
2023-04-12T23:48:20.179Z,31.70
2023-04-12T23:50:50.242Z,31.47
2023-04-12T23:53:20.128Z,27.00
2023-04-12T23:55:50.106Z,28.13
2023-04-12T23:58:19.434Z,33.23
